Time;durP1;ratioP1;P1;durP2;ratioP2;P2;SDS_P1;SDS_P2;PMS_P1;PMS_P2;Temp;Humidity;BMP_temperature;BMP_pressure;BME280_temperature;BME280_humidity;BME280_pressure;Samples;Min_cycle;Max_cycle;Signal;HPM_P1;HPM_P2
2021/04/19 00:00:14;;;;;;;14.20;5.78;;;24.20;68.90;;;;;;5089301;28;20024;-70
2021/04/19 00:02:42;;;;;;;18.50;6.22;;;24.20;68.90;;;;;;5086573;28;20135;-71
2021/04/19 00:05:14;;;;;;;18.60;6.13;;;24.10;68.90;;;;;;5088541;28;20035;-70
2021/04/19 00:07:41;;;;;;;14.73;5.55;;;24.10;68.90;;;;;;5088233;28;20012;-71
2021/04/19 00:10:09;;;;;;;18.25;4.93;;;24.10;69.00;;;;;;5088623;28;20027;-70
2021/04/19 00:12:36;;;;;;;10.35;4.68;;;24.10;69.00;;;;;;5088484;28;20031;-70
2021/04/19 00:15:05;;;;;;;18.02;5.25;;;24.10;68.90;;;;;;5089050;28;20016;-71
2021/04/19 00:17:33;;;;;;;15.98;4.57;;;24.10;68.90;;;;;;5089167;28;20024;-70
2021/04/19 00:19:59;;;;;;;13.88;4.53;;;24.10;69.00;;;;;;5087705;28;20031;-71
2021/04/19 00:22:26;;;;;;;13.82;5.63;;;24.10;69.10;;;;;;5089251;28;20013;-70
2021/04/19 00:24:52;;;;;;;18.13;5.63;;;24.10;69.00;;;;;;5088335;28;20088;-70
2021/04/19 00:27:19;;;;;;;11.15;4.35;;;24.10;69.10;;;;;;5086349;28;20066;-71
2021/04/19 00:29:45;;;;;;;12.90;4.18;;;24.10;69.30;;;;;;5084887;28;20538;-71
2021/04/19 00:32:12;;;;;;;15.07;4.15;;;24.10;69.40;;;;;;5084794;28;20382;-70
2021/04/19 00:34:38;;;;;;;11.15;3.78;;;24.00;69.40;;;;;;5088885;28;20023;-70
2021/04/19 00:37:05;;;;;;;12.82;4.28;;;24.00;69.50;;;;;;5086299;28;20016;-72
2021/04/19 00:39:32;;;;;;;10.18;4.68;;;24.00;69.60;;;;;;5071119;28;20499;-71
2021/04/19 00:41:59;;;;;;;8.18;3.50;;;24.00;69.60;;;;;;5087214;28;20020;-71
2021/04/19 00:44:26;;;;;;;13.80;4.70;;;24.00;69.60;;;;;;5087428;28;20362;-71
2021/04/19 00:46:52;;;;;;;16.17;3.95;;;24.00;69.60;;;;;;5087616;28;20012;-70
2021/04/19 00:49:21;;;;;;;10.30;3.08;;;24.00;69.60;;;;;;5088681;28;20028;-71
2021/04/19 00:51:48;;;;;;;10.30;2.60;;;24.00;69.70;;;;;;5081330;28;20025;-70
2021/04/19 00:54:16;;;;;;;9.50;2.80;;;24.00;69.70;;;;;;5087896;28;20008;-70
2021/04/19 00:56:43;;;;;;;9.43;2.75;;;24.00;69.70;;;;;;5088754;28;20076;-71
2021/04/19 00:59:09;;;;;;;10.98;2.50;;;24.00;69.70;;;;;;5087504;28;20063;-71
2021/04/19 01:01:36;;;;;;;7.68;2.72;;;23.90;69.70;;;;;;5088815;28;20031;-71
2021/04/19 01:04:03;;;;;;;9.32;2.20;;;23.90;69.80;;;;;;5087159;28;20021;-73
2021/04/19 01:06:29;;;;;;;9.75;3.38;;;23.90;69.90;;;;;;5092135;28;20099;-70
2021/04/19 01:08:56;;;;;;;9.07;3.20;;;23.90;70.00;;;;;;5092085;28;20104;-70
2021/04/19 01:11:22;;;;;;;13.30;3.30;;;23.90;70.10;;;;;;5089983;28;20545;-71
2021/04/19 01:13:49;;;;;;;8.50;3.15;;;23.90;70.00;;;;;;5092898;28;20485;-70
2021/04/19 01:16:16;;;;;;;8.55;3.03;;;23.90;69.90;;;;;;5088511;28;20094;-70
2021/04/19 01:18:42;;;;;;;10.55;3.88;;;23.90;69.80;;;;;;5092373;28;20015;-71
2021/04/19 01:21:09;;;;;;;8.43;3.22;;;23.90;69.60;;;;;;5091659;28;20023;-71
2021/04/19 01:23:37;;;;;;;8.80;3.45;;;23.90;69.50;;;;;;5092809;28;20052;-71
2021/04/19 01:26:05;;;;;;;7.25;3.05;;;23.90;69.30;;;;;;5091307;28;20437;-70
2021/04/19 01:28:32;;;;;;;7.82;3.38;;;23.80;69.30;;;;;;5092203;28;20067;-70
2021/04/19 01:30:58;;;;;;;10.85;4.53;;;23.80;69.10;;;;;;5092379;28;20128;-70
2021/04/19 01:33:25;;;;;;;8.27;3.20;;;23.80;68.90;;;;;;5090210;28;20016;-71
2021/04/19 01:35:53;;;;;;;5.82;2.97;;;23.90;68.80;;;;;;5092455;28;20024;-70
2021/04/19 01:38:24;;;;;;;6.15;3.15;;;23.80;68.60;;;;;;5090868;28;20016;-71
2021/04/19 01:40:53;;;;;;;7.72;3.22;;;23.80;68.50;;;;;;5088726;28;20016;-71
2021/04/19 01:43:21;;;;;;;9.30;3.08;;;23.80;68.50;;;;;;5089476;28;20482;-71
2021/04/19 01:45:49;;;;;;;6.65;3.97;;;23.80;68.50;;;;;;5092211;28;20069;-70
2021/04/19 01:48:15;;;;;;;13.27;3.78;;;23.80;68.50;;;;;;5091708;28;20538;-70
2021/04/19 01:50:42;;;;;;;11.00;3.80;;;23.70;68.60;;;;;;5090904;28;20023;-70
2021/04/19 01:53:09;;;;;;;11.55;3.85;;;23.70;68.60;;;;;;5091488;28;20433;-70
2021/04/19 01:55:36;;;;;;;8.82;2.38;;;23.70;68.60;;;;;;5090812;28;20378;-72
2021/04/19 01:58:37;;;;;;;8.43;2.13;;;23.70;68.60;;;;;;5092143;28;20466;-70
2021/04/19 02:01:04;;;;;;;5.82;2.30;;;23.70;68.60;;;;;;5073466;28;20035;-70
2021/04/19 02:03:54;;;;;;;6.55;2.28;;;23.70;68.50;;;;;;5091614;28;20391;-71
2021/04/19 02:06:59;;;;;;;6.45;1.92;;;23.70;68.30;;;;;;5091188;28;20107;-70
2021/04/19 02:09:33;;;;;;;8.25;2.45;;;23.70;68.10;;;;;;5088193;28;20089;-71
2021/04/19 02:12:42;;;;;;;6.47;1.50;;;23.70;67.90;;;;;;5090860;28;20042;-72
2021/04/19 02:15:24;;;;;;;6.22;1.98;;;23.70;67.80;;;;;;5073795;28;20046;-71
2021/04/19 02:18:09;;;;;;;6.30;1.85;;;23.70;67.80;;;;;;5090325;28;20038;-70
2021/04/19 02:20:52;;;;;;;6.10;1.73;;;23.70;67.60;;;;;;5090033;28;20157;-71
2021/04/19 02:23:32;;;;;;;5.35;1.38;;;23.70;67.40;;;;;;5091210;28;20035;-71
2021/04/19 02:26:27;;;;;;;6.13;1.45;;;23.70;67.40;;;;;;5090265;28;20501;-70
2021/04/19 02:29:07;;;;;;;4.47;1.10;;;23.70;67.30;;;;;;5089897;28;20012;-70
2021/04/19 02:31:48;;;;;;;3.20;1.10;;;23.70;67.10;;;;;;5089157;28;20498;-71
2021/04/19 02:34:18;;;;;;;9.25;2.05;;;23.70;67.10;;;;;;5090121;28;20471;-71
2021/04/19 02:36:50;;;;;;;7.53;2.58;;;23.60;66.90;;;;;;5089301;28;20023;-71
2021/04/19 02:39:18;;;;;;;6.95;2.42;;;23.70;66.90;;;;;;5089693;28;20047;-72
2021/04/19 02:41:48;;;;;;;9.65;2.33;;;23.70;66.90;;;;;;5091013;28;20069;-70
2021/04/19 02:44:16;;;;;;;4.60;1.98;;;23.60;66.90;;;;;;5090209;28;20028;-71
2021/04/19 02:46:44;;;;;;;6.93;1.83;;;23.60;66.90;;;;;;5090319;28;20013;-71
2021/04/19 02:49:11;;;;;;;4.40;2.58;;;23.60;67.00;;;;;;5089364;28;20019;-70
2021/04/19 02:51:42;;;;;;;3.72;1.90;;;23.60;67.10;;;;;;5088231;28;20356;-72
2021/04/19 02:54:11;;;;;;;4.93;2.28;;;23.60;67.10;;;;;;5089332;28;20490;-71
2021/04/19 02:56:41;;;;;;;3.55;1.83;;;23.60;67.30;;;;;;5089638;28;20099;-71
2021/04/19 02:59:09;;;;;;;9.25;3.00;;;23.60;67.40;;;;;;5089946;28;20031;-71
2021/04/19 03:01:40;;;;;;;8.32;2.40;;;23.60;67.40;;;;;;5086115;28;20145;-71
2021/04/19 03:04:15;;;;;;;9.63;2.67;;;23.60;67.40;;;;;;5088009;28;20028;-70
2021/04/19 03:06:47;;;;;;;15.45;3.33;;;23.60;67.30;;;;;;5090696;28;20032;-71
2021/04/19 03:09:16;;;;;;;7.55;1.83;;;23.60;67.20;;;;;;5088580;28;20416;-70
2021/04/19 03:11:46;;;;;;;10.85;2.67;;;23.50;67.00;;;;;;5090450;28;20027;-71
2021/04/19 03:14:14;;;;;;;6.57;3.05;;;23.50;66.90;;;;;;5089195;28;20019;-70
2021/04/19 03:16:49;;;;;;;7.38;2.05;;;23.50;66.90;;;;;;5089716;28;20528;-71
2021/04/19 03:19:22;;;;;;;8.80;2.67;;;23.50;66.90;;;;;;5090114;28;20023;-72
2021/04/19 03:21:49;;;;;;;12.43;4.57;;;23.50;66.90;;;;;;5087691;28;20004;-71
2021/04/19 03:24:16;;;;;;;9.60;4.28;;;23.50;66.90;;;;;;5090096;28;20153;-71
2021/04/19 03:26:43;;;;;;;8.27;3.72;;;23.50;66.80;;;;;;5085980;28;20020;-71
2021/04/19 03:29:11;;;;;;;14.50;4.43;;;23.50;66.90;;;;;;5089316;28;20023;-71
2021/04/19 03:31:53;;;;;;;7.18;3.25;;;23.50;66.90;;;;;;5089131;28;20036;-70
2021/04/19 03:34:27;;;;;;;6.75;2.40;;;23.40;67.00;;;;;;5089450;28;20428;-70
2021/04/19 03:37:04;;;;;;;8.82;2.72;;;23.40;67.10;;;;;;5087759;28;20020;-72
2021/04/19 03:39:33;;;;;;;11.70;2.83;;;23.40;67.30;;;;;;5086617;28;20047;-70
2021/04/19 03:42:02;;;;;;;9.23;2.13;;;23.40;67.20;;;;;;5089063;28;20484;-70
2021/04/19 03:44:34;;;;;;;8.75;2.80;;;23.40;67.30;;;;;;5088653;28;20570;-71
2021/04/19 03:47:03;;;;;;;7.75;2.50;;;23.40;67.30;;;;;;5089606;28;20038;-71
2021/04/19 03:49:36;;;;;;;11.65;3.33;;;23.40;67.40;;;;;;5089267;28;20020;-71
2021/04/19 03:52:07;;;;;;;13.10;3.42;;;23.40;67.30;;;;;;5085798;28;20020;-72
2021/04/19 03:54:39;;;;;;;14.20;3.22;;;23.40;67.30;;;;;;5089209;28;20024;-70
2021/04/19 03:57:08;;;;;;;13.20;3.75;;;23.40;67.20;;;;;;5087534;28;20069;-71
2021/04/19 03:59:38;;;;;;;15.88;4.35;;;23.30;67.20;;;;;;5089702;28;20020;-70
2021/04/19 04:02:06;;;;;;;18.55;4.20;;;23.30;67.20;;;;;;5088531;28;20016;-70
2021/04/19 04:05:12;;;;;;;17.17;3.50;;;23.30;67.10;;;;;;5089301;28;20376;-70
2021/04/19 04:08:18;;;;;;;11.50;2.70;;;23.30;66.90;;;;;;5087681;28;20020;-71
2021/04/19 04:11:24;;;;;;;13.80;3.10;;;23.30;66.90;;;;;;5089605;28;20047;-71
2021/04/19 04:13:51;;;;;;;17.75;6.97;;;23.30;66.80;;;;;;5080815;28;20035;-75
2021/04/19 04:16:20;;;;;;;19.73;6.78;;;23.30;66.70;;;;;;5072145;28;20048;-71
2021/04/19 04:18:46;;;;;;;13.70;5.28;;;23.30;66.70;;;;;;5083642;28;20024;-71
2021/04/19 04:21:52;;;;;;;17.33;6.38;;;23.30;66.70;;;;;;5089612;28;20639;-71
2021/04/19 04:24:59;;;;;;;18.52;6.80;;;23.30;66.70;;;;;;5089660;28;20028;-72
2021/04/19 04:28:05;;;;;;;14.82;4.70;;;23.30;66.70;;;;;;5081373;28;20019;-70
2021/04/19 04:31:11;;;;;;;11.57;4.10;;;23.20;66.70;;;;;;5085277;28;20521;-69
2021/04/19 04:34:18;;;;;;;13.07;4.25;;;23.20;66.60;;;;;;5090203;28;20028;-69
2021/04/19 04:36:44;;;;;;;13.63;4.10;;;23.20;66.50;;;;;;5086495;28;20031;-71
2021/04/19 04:39:11;;;;;;;9.05;3.30;;;23.20;66.40;;;;;;5088670;28;20479;-71
2021/04/19 04:41:37;;;;;;;8.95;3.00;;;23.20;66.30;;;;;;5089627;28;20016;-71
2021/04/19 04:44:06;;;;;;;12.50;3.53;;;23.20;66.30;;;;;;5088037;28;20082;-72
2021/04/19 04:46:51;;;;;;;13.00;3.28;;;23.20;66.20;;;;;;5089639;28;20024;-70
2021/04/19 04:49:33;;;;;;;11.57;3.08;;;23.10;66.20;;;;;;5088678;28;20422;-71
2021/04/19 04:52:01;;;;;;;15.07;4.07;;;23.20;66.30;;;;;;5089669;28;20030;-69
2021/04/19 04:54:29;;;;;;;11.30;3.13;;;23.10;66.40;;;;;;5089557;28;20016;-70
2021/04/19 04:57:00;;;;;;;11.40;3.38;;;23.10;66.50;;;;;;5087021;28;20127;-69
2021/04/19 04:59:29;;;;;;;11.95;4.40;;;23.10;66.60;;;;;;5086970;28;20020;-69
2021/04/19 05:01:57;;;;;;;11.23;3.17;;;23.10;66.90;;;;;;5089034;28;20020;-69
2021/04/19 05:04:27;;;;;;;11.50;4.70;;;23.10;66.90;;;;;;5077584;28;20452;-69
2021/04/19 05:06:54;;;;;;;11.80;2.70;;;23.10;66.90;;;;;;5088525;28;20028;-70
2021/04/19 05:09:21;;;;;;;12.27;3.20;;;23.10;66.80;;;;;;5087380;28;20078;-70
2021/04/19 05:11:48;;;;;;;10.93;3.83;;;23.00;66.80;;;;;;5089605;28;20505;-70
2021/04/19 05:14:15;;;;;;;11.40;2.40;;;23.00;66.70;;;;;;5088508;28;20484;-70
2021/04/19 05:16:41;;;;;;;11.98;3.30;;;23.00;66.60;;;;;;5089642;28;20020;-69
2021/04/19 05:19:08;;;;;;;12.75;4.38;;;23.00;66.40;;;;;;5087199;28;20028;-69
2021/04/19 05:21:36;;;;;;;11.32;3.17;;;23.00;66.30;;;;;;5088149;28;20024;-70
2021/04/19 05:24:02;;;;;;;12.90;4.22;;;23.00;66.20;;;;;;5088700;28;20041;-71
2021/04/19 05:26:32;;;;;;;10.98;3.65;;;22.90;66.10;;;;;;5089794;28;20017;-69
2021/04/19 05:28:58;;;;;;;13.45;3.35;;;22.90;66.10;;;;;;5089351;28;20028;-70
2021/04/19 05:31:25;;;;;;;13.15;4.53;;;23.00;66.10;;;;;;5088626;28;20044;-70
2021/04/19 05:33:56;;;;;;;18.15;4.25;;;23.00;66.10;;;;;;5088867;28;20429;-71
2021/04/19 05:36:24;;;;;;;15.88;3.97;;;22.90;65.90;;;;;;5082385;28;20020;-70
2021/04/19 05:38:52;;;;;;;10.95;3.25;;;22.90;66.00;;;;;;5087214;28;20026;-69
2021/04/19 05:41:19;;;;;;;13.65;2.95;;;22.90;66.00;;;;;;5087974;28;20008;-69
2021/04/19 05:43:46;;;;;;;13.88;5.07;;;22.90;65.90;;;;;;5086038;28;20032;-71
2021/04/19 05:46:15;;;;;;;11.13;3.42;;;22.90;65.80;;;;;;5087928;28;20111;-70
2021/04/19 05:48:42;;;;;;;14.38;5.03;;;22.90;65.80;;;;;;5084305;28;20141;-70
2021/04/19 05:51:25;;;;;;;9.45;3.25;;;22.90;65.80;;;;;;5090298;28;20347;-70
2021/04/19 05:53:55;;;;;;;13.20;4.75;;;22.90;65.70;;;;;;5091101;28;20004;-70
2021/04/19 05:56:27;;;;;;;10.13;3.72;;;22.90;65.70;;;;;;5092256;28;20040;-69
2021/04/19 05:59:13;;;;;;;17.88;3.83;;;22.90;65.70;;;;;;5091873;28;20016;-70
2021/04/19 06:01:43;;;;;;;16.42;4.90;;;22.90;65.60;;;;;;5090022;28;20024;-72
2021/04/19 06:04:23;;;;;;;12.05;3.72;;;22.90;65.60;;;;;;5073648;28;20063;-69
2021/04/19 06:06:52;;;;;;;16.55;6.03;;;22.90;65.60;;;;;;5088127;28;20027;-70
2021/04/19 06:09:33;;;;;;;10.95;3.70;;;22.90;65.60;;;;;;5091506;28;20031;-72
2021/04/19 06:12:06;;;;;;;18.30;5.55;;;22.90;65.50;;;;;;5091292;28;20047;-70
2021/04/19 06:14:37;;;;;;;20.55;4.57;;;22.90;65.50;;;;;;5091261;28;20063;-70
2021/04/19 06:17:06;;;;;;;20.00;3.92;;;22.90;65.40;;;;;;5091825;28;20064;-71
2021/04/19 06:19:36;;;;;;;24.15;5.15;;;22.90;65.40;;;;;;5090935;28;20024;-70
2021/04/19 06:22:03;;;;;;;16.52;5.05;;;22.90;65.30;;;;;;5091375;28;20065;-71
2021/04/19 06:24:30;;;;;;;15.48;3.58;;;22.90;65.20;;;;;;5089842;28;20028;-71
2021/04/19 06:26:58;;;;;;;21.35;5.03;;;22.90;65.10;;;;;;5091525;28;20008;-71
2021/04/19 06:29:29;;;;;;;15.13;3.95;;;22.80;65.00;;;;;;5087779;28;20486;-70
2021/04/19 06:31:58;;;;;;;17.15;6.03;;;22.90;64.90;;;;;;5090505;28;20127;-71
2021/04/19 06:34:24;;;;;;;19.40;4.88;;;22.90;64.80;;;;;;5092354;28;20031;-71
2021/04/19 06:36:51;;;;;;;16.10;4.57;;;22.80;64.70;;;;;;5090884;28;20065;-71
2021/04/19 06:39:20;;;;;;;13.70;3.58;;;22.90;64.60;;;;;;5092158;28;20581;-71
2021/04/19 06:41:47;;;;;;;14.90;4.03;;;22.80;64.50;;;;;;5091034;28;20043;-71
2021/04/19 06:44:15;;;;;;;15.90;3.50;;;22.90;64.40;;;;;;5091957;28;20598;-71
2021/04/19 06:46:44;;;;;;;16.85;4.20;;;22.80;64.30;;;;;;5086153;28;20015;-70
2021/04/19 06:49:14;;;;;;;20.15;5.53;;;22.80;64.20;;;;;;5091412;28;20095;-71
2021/04/19 06:51:43;;;;;;;18.45;4.05;;;22.80;64.10;;;;;;5092177;28;20382;-71
2021/04/19 06:54:10;;;;;;;17.50;5.22;;;22.80;64.00;;;;;;5090633;28;20406;-70
2021/04/19 06:56:42;;;;;;;13.70;4.43;;;22.80;64.00;;;;;;5090174;28;20493;-70
2021/04/19 06:59:15;;;;;;;13.93;4.32;;;22.90;64.00;;;;;;5088397;28;20027;-71
2021/04/19 07:02:21;;;;;;;11.98;4.10;;;22.90;63.90;;;;;;5088886;28;20021;-71
2021/04/19 07:05:27;;;;;;;11.35;3.88;;;22.90;63.80;;;;;;5073372;28;20044;-72
2021/04/19 07:08:22;;;;;;;24.85;5.78;;;22.90;63.70;;;;;;5069079;28;20382;-71
2021/04/19 07:11:30;;;;;;;16.70;4.40;;;22.90;63.50;;;;;;5076440;28;20102;-71
2021/04/19 07:14:38;;;;;;;18.02;5.03;;;22.90;63.40;;;;;;5076324;28;20017;-71
2021/04/19 07:17:45;;;;;;;10.38;3.13;;;22.90;63.30;;;;;;5075464;28;20095;-71
2021/04/19 07:20:51;;;;;;;12.23;3.67;;;23.00;63.30;;;;;;5072807;28;20115;-72
2021/04/19 07:23:26;;;;;;;15.00;4.22;;;23.00;63.20;;;;;;5077106;28;20081;-70
2021/04/19 07:25:53;;;;;;;;;;;23.00;63.10;;;;;;5070311;28;20027;-70
2021/04/19 07:28:19;;;;;;;10.13;3.40;;;23.00;63.00;;;;;;5073065;28;19927;-70
2021/04/19 07:30:57;;;;;;;8.70;2.92;;;23.10;62.80;;;;;;5073597;28;20036;-70
2021/04/19 07:33:34;;;;;;;10.43;3.63;;;23.10;62.80;;;;;;5072404;28;20131;-71
2021/04/19 07:36:22;;;;;;;13.80;3.53;;;23.10;62.70;;;;;;5075181;28;20027;-71
2021/04/19 07:38:49;;;;;;;9.05;3.20;;;23.10;62.50;;;;;;5071613;28;20032;-70
2021/04/19 07:41:16;;;;;;;9.52;2.90;;;23.10;62.30;;;;;;5072835;28;20529;-69
2021/04/19 07:43:45;;;;;;;11.63;2.42;;;23.10;62.20;;;;;;5074189;28;20020;-72
2021/04/19 07:46:18;;;;;;;14.60;3.42;;;23.20;62.20;;;;;;5080041;28;20123;-70
2021/04/19 07:48:52;;;;;;;10.20;3.22;;;23.20;62.00;;;;;;5089454;28;20467;-70
2021/04/19 07:51:29;;;;;;;13.40;3.38;;;23.20;62.00;;;;;;5083105;28;20540;-70
2021/04/19 07:54:11;;;;;;;11.77;3.08;;;23.20;61.90;;;;;;5079020;28;20019;-71
2021/04/19 07:56:39;;;;;;;6.82;2.35;;;23.20;61.80;;;;;;5077172;28;20100;-71
2021/04/19 07:59:31;;;;;;;7.05;2.13;;;23.20;61.80;;;;;;5076183;28;20067;-71
2021/04/19 08:02:05;;;;;;;9.50;2.45;;;23.30;61.70;;;;;;5078734;28;20035;-70
2021/04/19 08:04:34;;;;;;;17.52;5.95;;;23.30;61.60;;;;;;5089772;28;20039;-71
2021/04/19 08:07:00;;;;;;;9.50;3.17;;;23.20;61.40;;;;;;5086644;28;20502;-69
2021/04/19 08:09:30;;;;;;;7.03;1.83;;;23.30;61.40;;;;;;5089630;28;20020;-70
2021/04/19 08:12:05;;;;;;;6.85;2.55;;;23.30;61.30;;;;;;5089676;28;20020;-70
2021/04/19 08:14:31;;;;;;;;;;;23.30;61.30;;;;;;5085513;28;20475;-69
2021/04/19 08:17:11;;;;;;;10.25;2.10;;;23.40;61.30;;;;;;5088924;28;20390;-70
2021/04/19 08:19:40;;;;;;;12.45;2.38;;;23.40;61.10;;;;;;5088317;28;20027;-70
2021/04/19 08:22:21;;;;;;;14.43;2.28;;;23.40;61.00;;;;;;5082291;28;20043;-70
2021/04/19 08:24:48;;;;;;;11.52;2.75;;;23.50;61.00;;;;;;5086307;28;20080;-71
2021/04/19 08:27:23;;;;;;;11.65;2.45;;;23.50;61.00;;;;;;5083343;28;20027;-70
2021/04/19 08:29:50;;;;;;;18.10;2.60;;;23.50;60.80;;;;;;5078191;28;20061;-70
2021/04/19 08:32:21;;;;;;;17.50;2.83;;;23.50;60.70;;;;;;5076351;28;20020;-70
2021/04/19 08:34:51;;;;;;;13.52;2.13;;;23.50;60.50;;;;;;5079724;28;20055;-71
2021/04/19 08:37:22;;;;;;;13.38;2.47;;;23.50;60.40;;;;;;5077006;28;20074;-71
2021/04/19 08:39:50;;;;;;;9.85;2.65;;;23.50;60.30;;;;;;5085709;28;20061;-71
2021/04/19 08:42:17;;;;;;;6.55;2.30;;;23.60;60.30;;;;;;5084187;28;20107;-70
2021/04/19 08:44:44;;;;;;;12.85;2.35;;;23.60;60.10;;;;;;5089891;28;20425;-71
2021/04/19 08:47:17;;;;;;;12.30;2.83;;;23.60;60.00;;;;;;5088728;28;20046;-68
2021/04/19 08:49:43;;;;;;;21.42;3.67;;;23.70;59.90;;;;;;5090031;28;20421;-70
2021/04/19 08:52:10;;;;;;;16.00;2.90;;;23.70;59.70;;;;;;5089437;28;20016;-69
2021/04/19 08:54:37;;;;;;;18.85;3.30;;;23.80;59.50;;;;;;5090112;28;20017;-71
2021/04/19 08:57:03;;;;;;;20.88;3.85;;;23.80;59.30;;;;;;5088734;28;20031;-71
2021/04/19 08:59:30;;;;;;;22.75;3.63;;;23.80;59.10;;;;;;5089079;28;20027;-70
2021/04/19 09:01:57;;;;;;;31.00;4.47;;;23.90;59.00;;;;;;5089888;28;20020;-70
2021/04/19 09:04:24;;;;;;;18.20;4.40;;;23.90;58.80;;;;;;5088544;28;20024;-71
2021/04/19 09:06:52;;;;;;;11.43;3.63;;;24.00;58.70;;;;;;5087491;28;20031;-70
2021/04/19 09:09:39;;;;;;;15.68;4.47;;;24.00;58.50;;;;;;5088722;28;20066;-71
2021/04/19 09:12:12;;;;;;;25.65;4.32;;;24.10;58.10;;;;;;5088124;28;20065;-71
2021/04/19 09:14:43;;;;;;;17.98;3.55;;;24.10;57.70;;;;;;5090141;28;20024;-71
2021/04/19 09:17:09;;;;;;;20.10;4.20;;;24.10;57.60;;;;;;5088884;28;20107;-69
2021/04/19 09:19:38;;;;;;;24.92;4.28;;;24.10;57.30;;;;;;5087316;28;20048;-71
2021/04/19 09:22:14;;;;;;;32.03;5.38;;;24.20;57.20;;;;;;5088413;28;20024;-70
2021/04/19 09:25:03;;;;;;;30.02;4.55;;;24.20;57.00;;;;;;5089551;28;20036;-70
2021/04/19 09:28:00;;;;;;;22.98;4.10;;;24.30;56.70;;;;;;5093241;28;20398;-72
2021/04/19 09:30:32;;;;;;;22.48;4.05;;;24.40;56.40;;;;;;5092011;28;20044;-71
2021/04/19 09:33:05;;;;;;;22.20;4.25;;;24.40;56.20;;;;;;5093735;28;20327;-71
2021/04/19 09:38:37;;;;;;;18.15;3.55;;;24.50;55.40;;;;;;5093321;28;20028;-71
2021/04/19 09:41:06;;;;;;;16.25;3.40;;;24.60;55.20;;;;;;5091428;28;20016;-69
2021/04/19 09:43:49;;;;;;;12.30;2.38;;;24.60;54.80;;;;;;5089835;28;20110;-69
2021/04/19 09:46:19;;;;;;;28.08;4.07;;;24.70;54.60;;;;;;5092057;28;20035;-70
2021/04/19 09:48:56;;;;;;;22.00;4.30;;;24.70;54.40;;;;;;5092688;28;20043;-70
2021/04/19 09:51:33;;;;;;;28.00;4.18;;;24.80;54.40;;;;;;5086064;28;20474;-70
2021/04/19 09:54:05;;;;;;;29.85;6.13;;;24.80;54.10;;;;;;5093012;28;20021;-72
2021/04/19 09:56:44;;;;;;;22.20;4.63;;;24.80;54.20;;;;;;5092585;28;20252;-69
2021/04/19 09:59:19;;;;;;;16.00;4.68;;;24.90;54.10;;;;;;5097794;28;20023;-70
2021/04/19 10:01:51;;;;;;;19.20;3.25;;;25.00;54.00;;;;;;5092500;28;20031;-72
2021/04/19 10:04:18;;;;;;;14.52;3.83;;;25.00;53.80;;;;;;5092163;28;20086;-71
2021/04/19 10:06:52;;;;;;;17.70;2.40;;;25.00;53.50;;;;;;5091155;28;20483;-72
2021/04/19 10:09:30;;;;;;;13.13;1.80;;;25.10;53.20;;;;;;5091564;28;20423;-70
2021/04/19 10:12:01;;;;;;;8.45;2.15;;;25.20;53.20;;;;;;5092682;28;20024;-70
2021/04/19 10:14:42;;;;;;;7.50;2.20;;;25.20;53.00;;;;;;5091337;28;20640;-70
2021/04/19 10:17:16;;;;;;;10.13;1.42;;;25.30;52.60;;;;;;5091680;28;20031;-70
2021/04/19 10:19:43;;;;;;;9.10;2.05;;;25.30;52.70;;;;;;5092205;28;20032;-70
2021/04/19 10:22:11;;;;;;;10.65;2.17;;;25.30;52.60;;;;;;5084788;28;20107;-71
2021/04/19 10:24:49;;;;;;;10.95;2.42;;;25.40;52.40;;;;;;5092095;28;20043;-69
2021/04/19 10:27:24;;;;;;;7.28;2.33;;;25.40;52.20;;;;;;5090888;28;20072;-70
2021/04/19 10:29:52;;;;;;;8.40;2.30;;;25.50;52.00;;;;;;5091456;28;20548;-72
2021/04/19 10:32:31;;;;;;;4.55;1.48;;;25.60;51.90;;;;;;5087031;28;20046;-70
2021/04/19 10:34:58;;;;;;;6.65;1.33;;;25.60;51.80;;;;;;5089949;28;20027;-71
2021/04/19 10:37:25;;;;;;;13.65;2.47;;;25.60;51.80;;;;;;5090317;28;20065;-71
2021/04/19 10:39:52;;;;;;;12.32;3.05;;;25.70;51.50;;;;;;5091085;28;20188;-71
2021/04/19 10:42:31;;;;;;;11.18;2.40;;;25.80;51.70;;;;;;5092171;28;20103;-70
2021/04/19 10:45:09;;;;;;;11.00;2.47;;;25.80;51.80;;;;;;5084952;28;20044;-71
2021/04/19 10:47:35;;;;;;;13.93;3.13;;;25.90;52.00;;;;;;5091597;28;20020;-70
2021/04/19 10:50:02;;;;;;;12.70;2.72;;;26.00;52.00;;;;;;5092004;28;20012;-71
2021/04/19 10:52:28;;;;;;;10.18;3.20;;;26.00;51.80;;;;;;5090957;28;20012;-70
2021/04/19 10:54:55;;;;;;;17.40;2.63;;;26.00;51.40;;;;;;5091304;28;20149;-72
2021/04/19 10:57:24;;;;;;;7.65;1.60;;;26.10;51.40;;;;;;5088828;28;20034;-71
2021/04/19 10:59:55;;;;;;;14.48;1.77;;;26.10;51.10;;;;;;5088329;28;20031;-71
2021/04/19 11:02:29;;;;;;;12.77;1.80;;;26.20;50.90;;;;;;5088210;28;20629;-70
2021/04/19 11:04:57;;;;;;;3.67;1.30;;;26.20;50.80;;;;;;5090722;28;20112;-71
2021/04/19 11:07:25;;;;;;;6.25;1.65;;;26.20;50.40;;;;;;5087584;28;20039;-70
2021/04/19 11:10:14;;;;;;;5.38;1.48;;;26.30;50.30;;;;;;5089034;28;20036;-71
2021/04/19 11:12:53;;;;;;;10.80;1.58;;;26.30;50.40;;;;;;5086510;28;20036;-71
2021/04/19 11:15:22;;;;;;;9.27;1.77;;;26.30;50.30;;;;;;5091103;28;20474;-72
2021/04/19 11:17:49;;;;;;;12.35;3.22;;;26.40;50.30;;;;;;5090920;28;20024;-70
2021/04/19 11:20:31;;;;;;;11.07;2.20;;;26.50;50.40;;;;;;5088454;28;20560;-69
2021/04/19 11:23:01;;;;;;;17.55;2.85;;;26.50;50.20;;;;;;5089730;28;20024;-70
2021/04/19 11:25:30;;;;;;;13.93;3.03;;;26.50;50.10;;;;;;5091254;28;20067;-71
2021/04/19 11:28:21;;;;;;;13.35;2.50;;;26.50;50.00;;;;;;5090651;28;20016;-70
2021/04/19 11:30:49;;;;;;;21.67;3.30;;;26.50;49.90;;;;;;5075377;28;20044;-70
2021/04/19 11:33:21;;;;;;;16.80;3.40;;;26.60;50.00;;;;;;5091670;28;20026;-70
2021/04/19 11:35:50;;;;;;;14.18;3.17;;;26.60;50.00;;;;;;5090139;28;20017;-71
2021/04/19 11:38:25;;;;;;;16.08;2.92;;;26.60;50.00;;;;;;5091498;28;20552;-72
2021/04/19 11:41:01;;;;;;;20.45;4.45;;;26.60;49.90;;;;;;5090348;28;20031;-70
2021/04/19 11:43:30;;;;;;;18.40;4.32;;;26.60;49.70;;;;;;5084445;28;20127;-72
2021/04/19 11:46:14;;;;;;;22.85;3.25;;;26.60;49.40;;;;;;5069676;28;20043;-72
2021/04/19 11:48:45;;;;;;;15.82;2.90;;;26.60;49.30;;;;;;5089177;28;20505;-72
2021/04/19 11:51:14;;;;;;;10.90;2.95;;;26.60;49.30;;;;;;5091033;28;20012;-72
2021/04/19 11:53:43;;;;;;;6.57;1.63;;;26.60;49.00;;;;;;5083808;28;20349;-71
2021/04/19 11:56:12;;;;;;;6.85;3.17;;;26.70;48.90;;;;;;5091253;28;20030;-72
2021/04/19 11:58:44;;;;;;;5.60;1.83;;;26.70;48.60;;;;;;5084863;28;20467;-70
2021/04/19 12:01:12;;;;;;;7.63;1.17;;;26.70;48.10;;;;;;5090023;28;20043;-71
2021/04/19 12:03:40;;;;;;;3.40;0.90;;;26.80;48.10;;;;;;5090804;28;20406;-70
2021/04/19 12:06:07;;;;;;;10.70;1.55;;;26.80;48.10;;;;;;5087322;28;20035;-73
2021/04/19 12:08:39;;;;;;;8.95;2.20;;;26.80;48.00;;;;;;5084412;28;20020;-72
2021/04/19 12:11:06;;;;;;;5.50;1.23;;;26.80;47.90;;;;;;5089465;28;20058;-72
2021/04/19 12:13:33;;;;;;;8.98;2.75;;;26.80;48.00;;;;;;5090493;28;20496;-68
2021/04/19 12:16:00;;;;;;;6.28;1.23;;;26.80;48.00;;;;;;5089596;28;20040;-69
2021/04/19 12:18:28;;;;;;;3.63;0.95;;;26.80;47.90;;;;;;5088129;28;20528;-70
2021/04/19 12:20:54;;;;;;;7.88;1.10;;;26.80;47.50;;;;;;5091032;28;20023;-71
2021/04/19 12:23:22;;;;;;;4.72;0.90;;;26.80;47.80;;;;;;5086067;28;20077;-70
2021/04/19 12:25:53;;;;;;;4.50;1.02;;;26.70;47.90;;;;;;5090251;28;20496;-71
2021/04/19 12:28:21;;;;;;;2.17;1.13;;;26.80;47.80;;;;;;5088101;28;20031;-71
2021/04/19 12:30:47;;;;;;;2.80;1.00;;;26.80;47.80;;;;;;5085563;28;20048;-72
2021/04/19 12:33:15;;;;;;;4.95;1.45;;;26.80;47.90;;;;;;5083779;28;20539;-72
2021/04/19 12:35:42;;;;;;;4.15;0.68;;;26.80;47.70;;;;;;5089615;28;20043;-71
2021/04/19 12:38:08;;;;;;;6.07;1.40;;;26.80;47.60;;;;;;5088964;28;20031;-70
2021/04/19 12:40:35;;;;;;;2.13;1.00;;;26.80;47.50;;;;;;5083869;28;20023;-72
2021/04/19 12:43:02;;;;;;;7.50;1.15;;;26.90;47.40;;;;;;5090132;28;20012;-71
2021/04/19 12:45:32;;;;;;;4.60;0.85;;;26.90;47.20;;;;;;5088918;28;20036;-70
2021/04/19 12:48:00;;;;;;;4.10;0.88;;;26.90;47.20;;;;;;5089796;28;20478;-71
2021/04/19 12:50:27;;;;;;;5.60;1.05;;;27.00;47.00;;;;;;5089526;28;20107;-71
2021/04/19 12:52:54;;;;;;;3.20;0.63;;;27.00;46.90;;;;;;5089422;28;20104;-69
2021/04/19 12:55:20;;;;;;;4.80;1.20;;;27.10;47.00;;;;;;5089959;28;20048;-69
2021/04/19 12:57:47;;;;;;;4.43;0.90;;;27.10;46.80;;;;;;5085895;28;20024;-68
2021/04/19 13:00:13;;;;;;;4.63;0.88;;;27.10;46.60;;;;;;5089382;28;20024;-70
2021/04/19 13:02:40;;;;;;;7.30;1.58;;;27.10;46.60;;;;;;5082624;28;20094;-71
2021/04/19 13:05:07;;;;;;;6.30;1.30;;;27.20;46.60;;;;;;5089550;28;20055;-71
2021/04/19 13:07:33;;;;;;;5.60;2.08;;;27.30;46.60;;;;;;5089078;28;20016;-70
2021/04/19 13:10:00;;;;;;;8.38;1.27;;;27.30;46.50;;;;;;5089552;28;20378;-72